Time;durP1;ratioP1;P1;durP2;ratioP2;P2;SDS_P1;SDS_P2;PMS_P1;PMS_P2;Temp;Humidity;BMP_temperature;BMP_pressure;BME280_temperature;BME280_humidity;BME280_pressure;Samples;Min_cycle;Max_cycle;Signal;HPM_P1;HPM_P2
2024/01/10 00:00:07;;;;;;;23.37;20.47;;;10.40;61.90;;;;;;349625;28;988;-55
2024/01/10 00:00:18;;;;;;;23.85;20.52;;;10.40;61.90;;;;;;349562;28;1094;-57
2024/01/10 00:00:28;;;;;;;24.00;20.40;;;10.40;61.90;;;;;;349559;28;1161;-56
2024/01/10 00:00:39;;;;;;;24.75;20.40;;;10.40;61.80;;;;;;349651;28;1023;-57
2024/01/10 00:00:50;;;;;;;25.60;20.53;;;10.40;61.80;;;;;;349665;28;816;-56
2024/01/10 00:01:01;;;;;;;28.13;21.38;;;10.40;61.80;;;;;;349642;28;1030;-56
2024/01/10 00:01:11;;;;;;;28.85;21.58;;;10.30;61.90;;;;;;349667;28;816;-57
2024/01/10 00:01:26;;;;;;;29.77;21.83;;;10.40;61.90;;;;;;349533;28;1033;-55
2024/01/10 00:01:37;;;;;;;28.55;21.40;;;10.40;61.90;;;;;;349622;28;951;-56
2024/01/10 00:01:47;;;;;;;28.83;21.03;;;10.40;62.00;;;;;;349666;28;1773;-56
2024/01/10 00:01:58;;;;;;;26.75;20.05;;;10.40;62.00;;;;;;349670;28;816;-56
2024/01/10 00:02:09;;;;;;;24.45;19.98;;;10.40;62.10;;;;;;349636;28;1106;-57
2024/01/10 00:02:20;;;;;;;23.80;20.33;;;10.30;62.10;;;;;;349546;28;1245;-54
2024/01/10 00:02:31;;;;;;;24.75;21.00;;;10.40;62.20;;;;;;349653;28;999;-56
2024/01/10 00:02:41;;;;;;;25.17;21.37;;;10.40;62.20;;;;;;349606;28;1059;-55
2024/01/10 00:02:52;;;;;;;23.95;20.67;;;10.40;62.20;;;;;;349696;28;876;-56
2024/01/10 00:03:03;;;;;;;23.65;20.27;;;10.40;62.10;;;;;;349623;28;1030;-56
2024/01/10 00:03:14;;;;;;;21.98;19.65;;;10.30;62.10;;;;;;349585;28;1029;-55
2024/01/10 00:03:24;;;;;;;23.02;20.00;;;10.40;62.10;;;;;;349644;28;1066;-57
2024/01/10 00:03:35;;;;;;;23.80;19.70;;;10.40;62.10;;;;;;349607;28;850;-54
2024/01/10 00:03:46;;;;;;;25.95;19.75;;;10.40;62.10;;;;;;349669;28;1070;-56
2024/01/10 00:03:57;;;;;;;26.35;19.77;;;10.40;62.10;;;;;;349635;28;987;-57
2024/01/10 00:04:07;;;;;;;29.65;20.40;;;10.40;62.10;;;;;;349579;28;951;-56
2024/01/10 00:04:18;;;;;;;28.35;21.33;;;10.40;62.10;;;;;;349626;28;1200;-56
2024/01/10 00:04:29;;;;;;;26.17;20.63;;;10.40;62.10;;;;;;349609;28;1333;-56
2024/01/10 00:04:40;;;;;;;22.83;20.08;;;10.40;62.10;;;;;;349632;28;991;-56
2024/01/10 00:04:50;;;;;;;24.52;19.25;;;10.40;62.10;;;;;;349628;28;947;-55
2024/01/10 00:05:01;;;;;;;26.90;19.65;;;10.40;62.10;;;;;;349538;28;1119;-56
2024/01/10 00:05:12;;;;;;;27.38;20.30;;;10.40;62.10;;;;;;349642;28;1011;-57
2024/01/10 00:05:23;;;;;;;27.40;21.27;;;10.40;62.10;;;;;;349615;28;820;-55
2024/01/10 00:05:33;;;;;;;26.50;21.05;;;10.40;62.10;;;;;;349623;28;1058;-56
2024/01/10 00:05:44;;;;;;;27.48;21.02;;;10.40;62.10;;;;;;349610;28;1090;-57
2024/01/10 00:05:55;;;;;;;25.45;20.83;;;10.40;62.10;;;;;;349609;28;922;-56
2024/01/10 00:06:06;;;;;;;24.63;20.70;;;10.40;62.10;;;;;;349571;28;1028;-56
2024/01/10 00:06:16;;;;;;;24.27;20.75;;;10.40;62.10;;;;;;349631;28;967;-56
2024/01/10 00:06:27;;;;;;;24.95;21.08;;;10.40;62.10;;;;;;349641;28;888;-56
2024/01/10 00:06:38;;;;;;;26.25;21.75;;;10.40;62.10;;;;;;349564;28;1107;-57
2024/01/10 00:06:49;;;;;;;25.42;21.38;;;10.40;62.10;;;;;;349567;28;980;-57
2024/01/10 00:06:59;;;;;;;25.90;21.33;;;10.40;62.10;;;;;;349689;28;824;-55
2024/01/10 00:07:10;;;;;;;25.70;20.63;;;10.30;62.10;;;;;;349601;28;1090;-59
2024/01/10 00:07:21;;;;;;;27.17;21.02;;;10.40;62.10;;;;;;349592;28;1098;-57
2024/01/10 00:07:32;;;;;;;25.98;20.60;;;10.40;62.10;;;;;;349609;28;983;-56
2024/01/10 00:07:42;;;;;;;27.02;21.27;;;10.40;62.20;;;;;;349461;28;1071;-55
2024/01/10 00:07:54;;;;;;;26.43;21.03;;;10.40;62.20;;;;;;349647;28;959;-56
2024/01/10 00:08:06;;;;;;;25.30;21.10;;;10.30;62.20;;;;;;349669;28;1019;-57
2024/01/10 00:08:17;;;;;;;24.48;20.92;;;10.40;62.30;;;;;;349639;28;1014;-58
2024/01/10 00:08:28;;;;;;;25.27;20.92;;;10.30;62.30;;;;;;349658;28;828;-56
2024/01/10 00:08:38;;;;;;;26.50;20.85;;;10.30;62.30;;;;;;349567;28;906;-56
2024/01/10 00:08:50;;;;;;;26.92;21.25;;;10.40;62.20;;;;;;349619;28;1109;-56
2024/01/10 00:09:00;;;;;;;26.08;21.08;;;10.40;62.20;;;;;;349618;28;1113;-56
2024/01/10 00:09:11;;;;;;;24.45;21.10;;;10.40;62.20;;;;;;349563;28;1446;-56
2024/01/10 00:09:22;;;;;;;24.15;20.65;;;10.40;62.20;;;;;;349683;28;940;-54
2024/01/10 00:09:33;;;;;;;25.48;20.83;;;10.40;62.20;;;;;;349627;28;1105;-56
2024/01/10 00:09:45;;;;;;;26.92;20.70;;;10.40;62.30;;;;;;349567;28;1404;-55
2024/01/10 00:09:57;;;;;;;26.80;20.67;;;10.40;62.30;;;;;;349619;28;1043;-56
2024/01/10 00:10:08;;;;;;;25.60;20.55;;;10.40;62.30;;;;;;349680;28;1027;-56
2024/01/10 00:10:18;;;;;;;25.33;20.40;;;10.40;62.30;;;;;;349528;28;1071;-56
2024/01/10 00:10:29;;;;;;;23.93;20.03;;;10.40;62.30;;;;;;349655;28;1534;-56
2024/01/10 00:10:40;;;;;;;24.67;20.55;;;10.40;62.30;;;;;;349620;28;1498;-57
2024/01/10 00:10:54;;;;;;;25.25;20.77;;;10.40;62.30;;;;;;349679;28;864;-57
2024/01/10 00:11:04;;;;;;;25.20;20.65;;;10.40;62.30;;;;;;349529;28;1042;-57
2024/01/10 00:11:15;;;;;;;24.67;20.20;;;10.40;62.40;;;;;;349667;28;967;-56
2024/01/10 00:11:26;;;;;;;24.20;20.60;;;10.40;62.40;;;;;;349681;28;1031;-55
2024/01/10 00:11:37;;;;;;;24.52;20.90;;;10.40;62.40;;;;;;349659;28;872;-56
2024/01/10 00:11:48;;;;;;;24.35;20.73;;;10.40;62.40;;;;;;349627;28;997;-56
2024/01/10 00:11:58;;;;;;;24.45;20.35;;;10.40;62.40;;;;;;349616;28;1438;-57
2024/01/10 00:12:09;;;;;;;22.95;20.00;;;10.40;62.40;;;;;;349671;28;845;-56
2024/01/10 00:12:20;;;;;;;23.50;20.10;;;10.40;62.30;;;;;;349633;28;856;-56
2024/01/10 00:12:35;;;;;;;24.50;20.57;;;10.40;62.30;;;;;;349517;28;1094;-55
2024/01/10 00:12:46;;;;;;;26.83;20.73;;;10.40;62.30;;;;;;349588;28;1043;-56
2024/01/10 00:12:57;;;;;;;25.88;20.52;;;10.40;62.20;;;;;;349609;28;1023;-53
2024/01/10 00:13:08;;;;;;;25.90;20.37;;;10.40;62.20;;;;;;349578;28;1585;-55
2024/01/10 00:13:18;;;;;;;28.02;21.08;;;10.40;62.20;;;;;;349567;28;944;-56
2024/01/10 00:13:31;;;;;;;28.27;20.83;;;10.40;62.20;;;;;;349632;28;1133;-55
2024/01/10 00:13:42;;;;;;;26.92;20.92;;;10.40;62.10;;;;;;349625;28;872;-56
2024/01/10 00:13:59;;;;;;;25.85;20.00;;;10.40;62.10;;;;;;349624;28;972;-56
2024/01/10 00:14:10;;;;;;;25.88;20.60;;;10.40;62.10;;;;;;349552;28;1074;-55
2024/01/10 00:14:21;;;;;;;24.92;21.00;;;10.40;62.10;;;;;;349751;28;832;-55
2024/01/10 00:14:32;;;;;;;25.58;20.55;;;10.40;62.10;;;;;;349614;28;1074;-56
2024/01/10 00:14:42;;;;;;;25.88;20.65;;;10.40;62.10;;;;;;349597;28;1401;-55
2024/01/10 00:14:53;;;;;;;26.57;20.63;;;10.40;62.00;;;;;;349572;28;1090;-56
2024/01/10 00:15:05;;;;;;;27.08;21.25;;;10.40;62.00;;;;;;349564;28;1358;-56
2024/01/10 00:15:16;;;;;;;29.15;22.38;;;10.40;61.90;;;;;;349623;28;1055;-55
2024/01/10 00:15:27;;;;;;;29.58;23.73;;;10.40;61.90;;;;;;349607;28;999;-56
2024/01/10 00:15:38;;;;;;;32.05;25.38;;;10.40;61.90;;;;;;349593;28;1382;-56
2024/01/10 00:15:49;;;;;;;35.72;28.17;;;10.40;61.90;;;;;;349642;28;991;-56
2024/01/10 00:15:59;;;;;;;37.70;29.83;;;10.40;61.90;;;;;;349512;28;1209;-57
2024/01/10 00:16:14;;;;;;;38.28;29.58;;;10.40;61.90;;;;;;349620;28;1041;-55
2024/01/10 00:16:26;;;;;;;35.35;27.77;;;10.40;61.90;;;;;;349626;28;1657;-57
2024/01/10 00:16:37;;;;;;;31.92;26.15;;;10.40;61.80;;;;;;349579;28;1042;-55
2024/01/10 00:16:48;;;;;;;31.23;25.00;;;10.50;61.80;;;;;;349579;28;1034;-55
2024/01/10 00:16:59;;;;;;;29.95;24.38;;;10.50;61.80;;;;;;349608;28;2204;-55
2024/01/10 00:17:09;;;;;;;30.48;24.40;;;10.40;61.80;;;;;;349647;28;1771;-54
2024/01/10 00:17:20;;;;;;;30.38;23.98;;;10.40;61.80;;;;;;349650;28;1791;-55
2024/01/10 00:17:31;;;;;;;29.45;23.52;;;10.40;61.80;;;;;;349647;28;1058;-58
2024/01/10 00:17:42;;;;;;;27.70;22.85;;;10.50;61.80;;;;;;349525;28;960;-55
2024/01/10 00:17:52;;;;;;;26.23;22.43;;;10.50;61.80;;;;;;349591;28;2415;-55
2024/01/10 00:18:03;;;;;;;24.97;21.97;;;10.40;61.70;;;;;;349653;28;1850;-55
2024/01/10 00:18:14;;;;;;;25.42;21.15;;;10.40;61.70;;;;;;349620;28;1058;-56
2024/01/10 00:18:25;;;;;;;24.88;20.42;;;10.50;61.70;;;;;;349566;28;1130;-56
2024/01/10 00:18:36;;;;;;;24.25;20.15;;;10.50;61.70;;;;;;349582;28;913;-56
2024/01/10 00:18:47;;;;;;;23.17;20.17;;;10.50;61.70;;;;;;349633;28;1855;-56
2024/01/10 00:18:57;;;;;;;24.63;20.75;;;10.40;61.70;;;;;;349637;28;983;-55
2024/01/10 00:19:08;;;;;;;24.90;21.10;;;10.50;61.70;;;;;;349682;28;940;-55
2024/01/10 00:19:19;;;;;;;25.00;21.08;;;10.50;61.60;;;;;;349678;28;868;-56
2024/01/10 00:19:30;;;;;;;24.15;20.63;;;10.50;61.60;;;;;;349570;28;1091;-55
2024/01/10 00:19:41;;;;;;;24.45;20.95;;;10.50;61.60;;;;;;349603;28;979;-57
2024/01/10 00:19:52;;;;;;;24.60;21.13;;;10.50;61.60;;;;;;349662;28;895;-55
2024/01/10 00:20:03;;;;;;;24.98;20.88;;;10.50;61.50;;;;;;349628;28;1099;-58
2024/01/10 00:20:14;;;;;;;25.77;20.90;;;10.50;61.40;;;;;;349588;28;1011;-56
2024/01/10 00:20:24;;;;;;;25.35;20.33;;;10.50;61.40;;;;;;349632;28;833;-55
2024/01/10 00:20:35;;;;;;;24.23;20.55;;;10.50;61.40;;;;;;349602;28;1295;-54
2024/01/10 00:20:47;;;;;;;25.25;20.90;;;10.50;61.40;;;;;;349675;28;1738;-55
2024/01/10 00:20:58;;;;;;;25.90;21.40;;;10.50;61.40;;;;;;349565;28;1949;-55
2024/01/10 00:21:10;;;;;;;26.20;21.40;;;10.50;61.40;;;;;;349589;28;987;-55
2024/01/10 00:21:20;;;;;;;25.42;21.45;;;10.50;61.40;;;;;;349597;28;1122;-55
2024/01/10 00:21:31;;;;;;;25.85;21.35;;;10.50;61.40;;;;;;349671;28;876;-55
2024/01/10 00:21:42;;;;;;;26.40;21.50;;;10.50;61.40;;;;;;349496;28;1345;-55
2024/01/10 00:21:53;;;;;;;24.40;20.83;;;10.50;61.40;;;;;;349610;28;856;-55
2024/01/10 00:22:04;;;;;;;23.23;20.48;;;10.50;61.40;;;;;;349626;28;1295;-55
2024/01/10 00:22:14;;;;;;;23.63;20.80;;;10.50;61.40;;;;;;349634;28;975;-56
2024/01/10 00:22:25;;;;;;;26.17;21.93;;;10.50;61.40;;;;;;349588;28;903;-56
2024/01/10 00:22:36;;;;;;;26.98;22.00;;;10.50;61.40;;;;;;349585;28;1069;-56
2024/01/10 00:22:47;;;;;;;25.77;20.92;;;10.50;61.30;;;;;;349602;28;1227;-56
2024/01/10 00:22:57;;;;;;;25.55;20.88;;;10.50;61.40;;;;;;349577;28;1070;-56
2024/01/10 00:23:08;;;;;;;26.50;21.33;;;10.50;61.40;;;;;;349504;28;1399;-56
2024/01/10 00:23:19;;;;;;;27.13;21.58;;;10.50;61.40;;;;;;349605;28;1413;-56
2024/01/10 00:23:30;;;;;;;27.95;21.95;;;10.50;61.50;;;;;;349593;28;1122;-55
2024/01/10 00:23:40;;;;;;;27.88;21.73;;;10.50;61.40;;;;;;349604;28;1070;-55
2024/01/10 00:23:51;;;;;;;28.35;22.05;;;10.50;61.50;;;;;;349537;28;1125;-56
2024/01/10 00:24:02;;;;;;;28.35;21.92;;;10.50;61.50;;;;;;349635;28;844;-56
2024/01/10 00:24:13;;;;;;;27.30;21.80;;;10.50;61.40;;;;;;349619;28;1070;-55
2024/01/10 00:24:24;;;;;;;25.57;21.73;;;10.50;61.30;;;;;;349622;28;1102;-55
2024/01/10 00:24:34;;;;;;;24.92;21.45;;;10.50;61.30;;;;;;349475;28;1134;-55
2024/01/10 00:24:45;;;;;;;25.65;21.23;;;10.50;61.20;;;;;;349612;28;1115;-55
2024/01/10 00:24:56;;;;;;;26.40;21.15;;;10.50;61.20;;;;;;349602;28;1102;-55
2024/01/10 00:25:07;;;;;;;25.10;20.92;;;10.50;61.20;;;;;;349647;28;785;-54
2024/01/10 00:25:18;;;;;;;25.77;21.27;;;10.50;61.20;;;;;;349588;28;1070;-55
2024/01/10 00:25:29;;;;;;;25.80;21.25;;;10.50;61.20;;;;;;349579;28;1146;-55
2024/01/10 00:25:39;;;;;;;26.33;21.25;;;10.50;61.30;;;;;;349592;28;1082;-55
2024/01/10 00:25:50;;;;;;;26.13;21.27;;;10.50;61.30;;;;;;349644;28;1031;-55
2024/01/10 00:26:01;;;;;;;27.55;21.80;;;10.50;61.30;;;;;;349586;28;1133;-55
2024/01/10 00:26:12;;;;;;;27.05;21.90;;;10.50;61.30;;;;;;349570;28;1388;-57
2024/01/10 00:26:22;;;;;;;27.45;22.08;;;10.50;61.30;;;;;;349646;28;871;-55
2024/01/10 00:26:33;;;;;;;28.05;22.48;;;10.50;61.30;;;;;;349593;28;1066;-56
2024/01/10 00:26:44;;;;;;;30.30;22.70;;;10.60;61.30;;;;;;349537;28;1010;-55
2024/01/10 00:26:55;;;;;;;28.73;22.67;;;10.60;61.40;;;;;;349659;28;903;-55
2024/01/10 00:27:06;;;;;;;27.40;22.35;;;10.60;61.40;;;;;;349628;28;1027;-56
2024/01/10 00:27:17;;;;;;;27.40;23.15;;;10.50;61.40;;;;;;349690;28;1054;-55
2024/01/10 00:27:27;;;;;;;26.80;22.85;;;10.60;61.40;;;;;;349543;28;1145;-55
2024/01/10 00:27:38;;;;;;;25.85;22.45;;;10.50;61.40;;;;;;349747;28;976;-55
2024/01/10 00:27:49;;;;;;;25.73;22.03;;;10.60;61.40;;;;;;349877;28;1544;-55
2024/01/10 00:27:59;;;;;;;27.15;22.67;;;10.60;61.40;;;;;;349859;28;2235;-55
2024/01/10 00:28:10;;;;;;;26.88;22.25;;;10.60;61.30;;;;;;349801;28;1058;-55
2024/01/10 00:28:21;;;;;;;26.77;22.15;;;10.60;61.30;;;;;;349908;28;868;-55
2024/01/10 00:28:32;;;;;;;25.90;21.73;;;10.60;61.30;;;;;;349871;28;1035;-54
2024/01/10 00:28:45;;;;;;;24.48;21.88;;;10.60;61.20;;;;;;349880;28;1043;-56
2024/01/10 00:28:56;;;;;;;25.25;22.55;;;10.60;61.20;;;;;;349847;28;1017;-55
2024/01/10 00:29:07;;;;;;;25.30;22.30;;;10.70;61.20;;;;;;349878;28;1035;-55
2024/01/10 00:29:18;;;;;;;25.38;22.25;;;10.60;61.20;;;;;;349903;28;1058;-55
2024/01/10 00:29:28;;;;;;;24.95;21.65;;;10.60;61.20;;;;;;349956;28;1046;-55
2024/01/10 00:29:39;;;;;;;25.97;21.50;;;10.60;61.20;;;;;;349741;28;2061;-55
2024/01/10 00:29:51;;;;;;;26.95;21.63;;;10.60;61.10;;;;;;349945;28;903;-56
2024/01/10 00:30:03;;;;;;;26.30;21.45;;;10.60;61.00;;;;;;349884;28;881;-55
2024/01/10 00:30:13;;;;;;;26.33;21.80;;;10.70;61.00;;;;;;349837;28;1134;-54
2024/01/10 00:30:25;;;;;;;26.00;21.63;;;10.70;61.00;;;;;;349775;28;1332;-55
2024/01/10 00:30:38;;;;;;;27.30;21.88;;;10.60;61.00;;;;;;349836;28;1409;-56
2024/01/10 00:30:49;;;;;;;27.05;21.60;;;10.70;61.00;;;;;;349919;28;876;-56
2024/01/10 00:31:00;;;;;;;27.30;21.67;;;10.70;61.00;;;;;;349808;28;1129;-56
2024/01/10 00:31:11;;;;;;;28.02;22.30;;;10.70;61.00;;;;;;349836;28;1086;-56
2024/01/10 00:31:21;;;;;;;26.23;22.15;;;10.70;61.10;;;;;;349925;28;1027;-55
2024/01/10 00:31:32;;;;;;;25.73;22.40;;;10.60;61.10;;;;;;349915;28;1066;-54
2024/01/10 00:31:43;;;;;;;27.40;22.60;;;10.70;61.10;;;;;;349744;28;1279;-54
2024/01/10 00:31:54;;;;;;;29.57;23.47;;;10.60;61.10;;;;;;349860;28;1102;-54
2024/01/10 00:32:05;;;;;;;28.85;23.15;;;10.70;61.10;;;;;;349924;28;903;-55
2024/01/10 00:32:16;;;;;;;26.58;22.55;;;10.60;61.10;;;;;;349895;28;988;-54
2024/01/10 00:32:26;;;;;;;26.42;22.05;;;10.60;61.10;;;;;;349807;28;1079;-57
2024/01/10 00:32:37;;;;;;;27.17;21.83;;;10.60;61.10;;;;;;349852;28;1011;-56
2024/01/10 00:32:48;;;;;;;28.27;22.17;;;10.60;61.20;;;;;;349856;28;1264;-56
2024/01/10 00:32:59;;;;;;;28.33;22.73;;;10.60;61.20;;;;;;349933;28;1074;-56
2024/01/10 00:33:09;;;;;;;27.43;23.30;;;10.70;61.10;;;;;;349818;28;1029;-56
2024/01/10 00:33:20;;;;;;;27.77;23.50;;;10.60;61.10;;;;;;349918;28;808;-56
2024/01/10 00:33:31;;;;;;;28.95;23.83;;;10.60;61.10;;;;;;349923;28;1113;-57
2024/01/10 00:33:41;;;;;;;30.02;24.15;;;10.70;61.10;;;;;;349757;28;1066;-56
2024/01/10 00:33:52;;;;;;;29.90;23.67;;;10.70;61.10;;;;;;349765;28;1066;-54
2024/01/10 00:34:03;;;;;;;28.77;23.27;;;10.60;61.10;;;;;;349874;28;1384;-56
2024/01/10 00:34:14;;;;;;;27.33;22.38;;;10.70;61.10;;;;;;349912;28;1034;-55
2024/01/10 00:34:25;;;;;;;26.10;22.65;;;10.70;61.10;;;;;;349889;28;1401;-56
2024/01/10 00:34:35;;;;;;;25.92;22.70;;;10.70;61.10;;;;;;349855;28;1232;-55
2024/01/10 00:34:46;;;;;;;27.08;23.00;;;10.60;61.10;;;;;;349827;28;1034;-55
2024/01/10 00:34:57;;;;;;;26.70;22.57;;;10.70;61.10;;;;;;349888;28;1775;-55
2024/01/10 00:35:08;;;;;;;25.85;22.20;;;10.60;61.10;;;;;;349920;28;992;-55
2024/01/10 00:35:18;;;;;;;24.90;21.67;;;10.70;61.20;;;;;;349897;28;1010;-56
2024/01/10 00:35:30;;;;;;;25.48;21.60;;;10.60;61.20;;;;;;349938;28;1003;-55
2024/01/10 00:35:40;;;;;;;25.05;21.80;;;10.60;61.20;;;;;;349750;28;964;-55
2024/01/10 00:35:51;;;;;;;24.83;21.60;;;10.70;61.20;;;;;;349891;28;829;-56
2024/01/10 00:36:02;;;;;;;27.80;21.95;;;10.60;61.20;;;;;;349925;28;1038;-56
2024/01/10 00:36:13;;;;;;;30.05;22.10;;;10.60;61.10;;;;;;349884;28;848;-55
2024/01/10 00:36:23;;;;;;;32.93;22.03;;;10.60;61.10;;;;;;349930;28;809;-55
2024/01/10 00:36:34;;;;;;;31.15;21.77;;;10.60;61.10;;;;;;349806;28;1034;-55
2024/01/10 00:36:45;;;;;;;29.27;21.55;;;10.60;61.10;;;;;;349927;28;833;-55
2024/01/10 00:36:57;;;;;;;25.33;21.48;;;10.60;61.10;;;;;;349880;28;1061;-55
2024/01/10 00:37:07;;;;;;;23.55;20.95;;;10.60;61.10;;;;;;349911;28;872;-56
2024/01/10 00:37:18;;;;;;;24.17;21.07;;;10.60;61.10;;;;;;349843;28;1051;-55
2024/01/10 00:37:29;;;;;;;24.45;21.38;;;10.60;61.10;;;;;;349827;28;1203;-55
2024/01/10 00:37:40;;;;;;;25.83;21.65;;;10.60;61.10;;;;;;349896;28;852;-55
2024/01/10 00:37:50;;;;;;;26.15;22.02;;;10.60;61.10;;;;;;349868;28;1270;-56
2024/01/10 00:38:01;;;;;;;26.80;22.13;;;10.60;61.10;;;;;;349903;28;1042;-55
2024/01/10 00:38:13;;;;;;;25.90;21.95;;;10.60;61.10;;;;;;349927;28;821;-55
2024/01/10 00:38:23;;;;;;;27.17;21.77;;;10.60;61.10;;;;;;349794;28;1035;-55
2024/01/10 00:38:34;;;;;;;26.95;21.42;;;10.60;61.00;;;;;;349842;28;1056;-55
2024/01/10 00:38:45;;;;;;;27.67;21.40;;;10.60;61.00;;;;;;349884;28;848;-55
2024/01/10 00:38:55;;;;;;;26.67;21.02;;;10.70;61.10;;;;;;349900;28;887;-55
2024/01/10 00:39:06;;;;;;;27.90;21.38;;;10.60;61.00;;;;;;349850;28;1090;-54
2024/01/10 00:39:17;;;;;;;27.27;21.42;;;10.60;61.00;;;;;;349823;28;1082;-55
2024/01/10 00:39:28;;;;;;;26.80;22.13;;;10.70;61.00;;;;;;349840;28;1097;-55
2024/01/10 00:39:39;;;;;;;26.90;22.10;;;10.70;61.00;;;;;;349885;28;1003;-55
2024/01/10 00:39:50;;;;;;;26.52;21.67;;;10.60;61.00;;;;;;349797;28;1034;-55
2024/01/10 00:40:01;;;;;;;28.52;22.08;;;10.70;60.90;;;;;;349920;28;916;-55
2024/01/10 00:40:12;;;;;;;27.05;21.63;;;10.70;60.90;;;;;;349869;28;979;-56
2024/01/10 00:40:23;;;;;;;26.25;21.35;;;10.70;60.90;;;;;;349810;28;1008;-56
2024/01/10 00:40:34;;;;;;;24.30;21.15;;;10.60;60.80;;;;;;349884;28;1019;-55
2024/01/10 00:40:45;;;;;;;25.77;22.00;;;10.70;60.80;;;;;;349910;28;964;-56
2024/01/10 00:40:56;;;;;;;27.13;22.33;;;10.70;60.80;;;;;;349796;28;961;-56
2024/01/10 00:41:07;;;;;;;26.60;21.63;;;10.70;60.80;;;;;;349808;28;1550;-56
2024/01/10 00:41:18;;;;;;;24.92;21.38;;;10.70;60.80;;;;;;349873;28;1879;-56
2024/01/10 00:41:28;;;;;;;24.67;21.25;;;10.70;60.80;;;;;;349780;28;1499;-55
2024/01/10 00:41:39;;;;;;;26.27;21.65;;;10.70;60.70;;;;;;349878;28;1046;-57
2024/01/10 00:41:50;;;;;;;27.03;21.67;;;10.70;60.70;;;;;;349915;28;1074;-55
2024/01/10 00:42:01;;;;;;;26.42;21.75;;;10.70;60.70;;;;;;349767;28;1142;-55
2024/01/10 00:42:11;;;;;;;26.90;22.02;;;10.60;60.70;;;;;;349651;28;1219;-55
2024/01/10 00:42:22;;;;;;;28.38;22.35;;;10.70;60.70;;;;;;349834;28;1338;-56
2024/01/10 00:42:33;;;;;;;28.23;22.00;;;10.70;60.70;;;;;;349769;28;1153;-54
2024/01/10 00:42:44;;;;;;;27.35;22.00;;;10.60;60.70;;;;;;349886;28;844;-55
2024/01/10 00:42:55;;;;;;;26.77;21.60;;;10.70;60.70;;;;;;349877;28;1039;-55
2024/01/10 00:43:05;;;;;;;25.85;21.58;;;10.70;60.70;;;;;;349793;28;1083;-56
2024/01/10 00:43:16;;;;;;;27.63;21.52;;;10.70;60.70;;;;;;349857;28;979;-56
2024/01/10 00:43:27;;;;;;;27.35;21.52;;;10.60;60.70;;;;;;349892;28;1761;-56
2024/01/10 00:43:38;;;;;;;26.75;21.35;;;10.70;60.70;;;;;;349805;28;979;-55
2024/01/10 00:43:48;;;;;;;24.37;20.67;;;10.70;60.70;;;;;;349827;28;1565;-55
2024/01/10 00:43:59;;;;;;;24.70;20.60;;;10.70;60.70;;;;;;349908;28;856;-55
2024/01/10 00:44:10;;;;;;;25.40;20.60;;;10.70;60.70;;;;;;349883;28;983;-55
2024/01/10 00:44:21;;;;;;;25.08;20.90;;;10.70;60.70;;;;;;349832;28;2091;-56
2024/01/10 00:44:31;;;;;;;24.08;20.60;;;10.70;60.70;;;;;;349802;28;1110;-55
2024/01/10 00:44:42;;;;;;;24.60;20.70;;;10.70;60.70;;;;;;349847;28;971;-55
2024/01/10 00:44:53;;;;;;;25.45;21.42;;;10.70;60.70;;;;;;349915;28;875;-55
2024/01/10 00:45:04;;;;;;;25.23;21.83;;;10.70;60.70;;;;;;349875;28;2395;-55
2024/01/10 00:45:16;;;;;;;25.42;21.58;;;10.70;60.70;;;;;;349810;28;1491;-55
2024/01/10 00:45:27;;;;;;;25.23;20.98;;;10.70;60.70;;;;;;349807;28;1027;-55
2024/01/10 00:45:38;;;;;;;24.98;21.02;;;10.70;60.60;;;;;;349889;28;1003;-55
2024/01/10 00:45:48;;;;;;;26.05;21.30;;;10.70;60.60;;;;;;349899;28;844;-56
2024/01/10 00:45:59;;;;;;;25.52;21.15;;;10.70;60.70;;;;;;349868;28;1157;-55
2024/01/10 00:46:10;;;;;;;25.87;20.60;;;10.70;60.70;;;;;;349864;28;1019;-57
2024/01/10 00:46:21;;;;;;;26.23;21.15;;;10.70;60.70;;;;;;349805;28;1052;-56
2024/01/10 00:46:31;;;;;;;26.95;21.33;;;10.70;60.70;;;;;;349883;28;959;-54
2024/01/10 00:46:42;;;;;;;26.73;21.63;;;10.70;60.70;;;;;;349881;28;939;-55
2024/01/10 00:46:53;;;;;;;24.75;21.00;;;10.70;60.80;;;;;;349765;28;1259;-56
2024/01/10 00:47:04;;;;;;;24.47;20.73;;;10.70;60.80;;;;;;349843;28;1158;-55
2024/01/10 00:47:14;;;;;;;26.30;21.08;;;10.70;60.80;;;;;;349788;28;906;-55
2024/01/10 00:47:25;;;;;;;27.85;21.40;;;10.70;60.80;;;;;;349890;28;952;-54
2024/01/10 00:47:36;;;;;;;27.80;21.90;;;10.70;60.90;;;;;;349880;28;809;-55
2024/01/10 00:47:49;;;;;;;25.60;22.10;;;10.70;60.90;;;;;;349821;28;1189;-55
2024/01/10 00:48:00;;;;;;;24.92;21.95;;;10.70;60.80;;;;;;349882;28;908;-56
2024/01/10 00:48:10;;;;;;;25.57;22.13;;;10.70;60.80;;;;;;349785;28;1619;-57
2024/01/10 00:48:21;;;;;;;26.33;22.00;;;10.70;60.80;;;;;;349864;28;1007;-56
2024/01/10 00:48:33;;;;;;;26.80;21.92;;;10.70;60.80;;;;;;349902;28;927;-56
2024/01/10 00:48:44;;;;;;;27.45;21.90;;;10.70;60.80;;;;;;349814;28;1130;-56
2024/01/10 00:48:55;;;;;;;26.88;21.98;;;10.70;60.80;;;;;;349827;28;920;-56
2024/01/10 00:49:06;;;;;;;27.08;21.80;;;10.70;60.80;;;;;;349774;28;1095;-56
2024/01/10 00:49:16;;;;;;;27.05;21.48;;;10.70;60.80;;;;;;349884;28;1007;-55
2024/01/10 00:49:27;;;;;;;28.20;21.30;;;10.70;60.80;;;;;;349886;28;924;-56
2024/01/10 00:49:38;;;;;;;27.30;20.83;;;10.70;60.90;;;;;;349826;28;2005;-57
2024/01/10 00:49:49;;;;;;;26.98;20.98;;;10.70;60.90;;;;;;349777;28;1864;-56
2024/01/10 00:49:59;;;;;;;27.33;21.10;;;10.70;60.90;;;;;;349874;28;1026;-56
2024/01/10 00:50:10;;;;;;;27.70;21.08;;;10.70;60.90;;;;;;349887;28;883;-56
2024/01/10 00:50:21;;;;;;;27.50;21.30;;;10.70;60.90;;;;;;349752;28;907;-55
2024/01/10 00:50:31;;;;;;;26.92;21.52;;;10.70;60.90;;;;;;349633;28;1363;-56
2024/01/10 00:50:44;;;;;;;26.25;21.27;;;10.70;60.90;;;;;;349671;28;1133;-56
2024/01/10 00:50:54;;;;;;;25.67;20.65;;;10.70;60.90;;;;;;349778;28;848;-57
2024/01/10 00:51:08;;;;;;;24.38;20.42;;;10.70;60.90;;;;;;349767;28;1035;-55
2024/01/10 00:51:19;;;;;;;23.52;20.82;;;10.70;60.90;;;;;;349646;28;1094;-57
2024/01/10 00:51:29;;;;;;;24.03;21.43;;;10.70;60.90;;;;;;349767;28;845;-56
2024/01/10 00:51:40;;;;;;;24.27;21.67;;;10.70;60.90;;;;;;349704;28;1169;-55
2024/01/10 00:51:51;;;;;;;24.85;21.70;;;10.70;60.90;;;;;;349718;28;1070;-55
2024/01/10 00:52:02;;;;;;;24.95;21.63;;;10.70;60.90;;;;;;349708;28;1027;-55
2024/01/10 00:52:13;;;;;;;24.92;21.48;;;10.70;60.90;;;;;;349793;28;907;-56
2024/01/10 00:52:23;;;;;;;27.20;21.30;;;10.70;60.90;;;;;;349880;28;1882;-55
2024/01/10 00:52:34;;;;;;;27.80;21.60;;;10.70;60.90;;;;;;349888;28;811;-55
2024/01/10 00:52:45;;;;;;;28.60;21.70;;;10.70;60.90;;;;;;349749;28;1074;-55
2024/01/10 00:52:56;;;;;;;26.48;22.17;;;10.70;60.80;;;;;;349836;28;1095;-55
2024/01/10 00:53:07;;;;;;;27.20;22.48;;;10.70;60.90;;;;;;349869;28;1122;-55
2024/01/10 00:53:17;;;;;;;28.65;23.27;;;10.70;60.80;;;;;;349880;28;1078;-55
2024/01/10 00:53:28;;;;;;;27.15;22.58;;;10.70;60.80;;;;;;349768;28;1015;-57
2024/01/10 00:53:39;;;;;;;26.53;22.10;;;10.70;60.70;;;;;;349846;28;987;-55
2024/01/10 00:53:50;;;;;;;25.48;21.88;;;10.70;60.70;;;;;;349851;28;817;-55
2024/01/10 00:54:01;;;;;;;27.70;22.67;;;10.70;60.60;;;;;;349835;28;1082;-55
2024/01/10 00:54:11;;;;;;;27.70;22.40;;;10.70;60.70;;;;;;349752;28;1426;-56
2024/01/10 00:54:22;;;;;;;28.00;21.92;;;10.70;60.70;;;;;;349851;28;1382;-55
2024/01/10 00:54:33;;;;;;;26.80;21.63;;;10.70;60.70;;;;;;349893;28;862;-55
2024/01/10 00:54:45;;;;;;;25.52;21.85;;;10.70;60.70;;;;;;349799;28;935;-56
2024/01/10 00:54:56;;;;;;;25.52;21.92;;;10.70;60.60;;;;;;349856;28;1239;-54
2024/01/10 00:55:07;;;;;;;27.30;21.95;;;10.70;60.60;;;;;;349874;28;980;-56
2024/01/10 00:55:18;;;;;;;28.83;21.80;;;10.70;60.60;;;;;;349767;28;1050;-56
2024/01/10 00:55:29;;;;;;;30.60;22.27;;;10.70;60.60;;;;;;349813;28;1105;-56
2024/01/10 00:55:40;;;;;;;30.30;22.15;;;10.70;60.50;;;;;;349780;28;1416;-55
2024/01/10 00:55:50;;;;;;;28.55;22.15;;;10.70;60.60;;;;;;349806;28;908;-55
2024/01/10 00:56:01;;;;;;;26.13;22.07;;;10.70;60.60;;;;;;349878;28;1177;-55
2024/01/10 00:56:12;;;;;;;25.05;22.17;;;10.70;60.60;;;;;;349875;28;935;-55
2024/01/10 00:56:23;;;;;;;26.30;22.42;;;10.70;60.60;;;;;;349838;28;963;-55
2024/01/10 00:56:34;;;;;;;26.88;22.27;;;10.70;60.60;;;;;;349835;28;1011;-55
2024/01/10 00:56:44;;;;;;;26.60;21.90;;;10.70;60.60;;;;;;349830;28;1547;-55
2024/01/10 00:56:55;;;;;;;27.07;21.60;;;10.70;60.60;;;;;;349766;28;1005;-56
2024/01/10 00:57:06;;;;;;;26.77;21.03;;;10.70;60.60;;;;;;349809;28;1521;-55
2024/01/10 00:57:17;;;;;;;26.17;21.02;;;10.70;60.60;;;;;;349844;28;1067;-55